Hailey, Oklahoma
Current Conditions -  °F | °C
As of 6:15 PM on Friday 24 Oct 2014 (Local Time) from KCUH Reporting Station
Clear Clear  
Wind Chill: 79°   Ceiling: Unl
Heat Index: 81°   Visibility: 10mi
Dew Point: 64°   Wind: 5mph
Humidity: 61%   Direction: 210°SSW
Pressure: 30.02"   Gusts: NA
Location:  36.2329°N, 96.5662°W
Report Text: KCUH 242315Z AUTO 21004KT 10SM CLR 26/18 A3002 RMK AO2
Loading
Personal Weather Stations






























Interactive Weather Map
Tropical Storm Tracking
New forecast layout! Learn more

10-Day Weather Forecast

Advertisements
Track Severe Weather on mobile